Terminal Aerodrome Forecast
Issued by NWS

Home | Current Version | Previous Version | Text Only | Print | Product List | Glossary On
Versions: 1 2 3 4 5 6 7 8 9 10 11 12 13 14 15
729
FTUS42 KMLB 110202 AAA
TAFSUA
TAF AMD
KSUA 110202Z 1102/1124 30008KT P6SM FEW250
     FM111200 32005KT P6SM SKC
      AMD LTD TO VIS AND WIND TIL 111200=

USA.gov is the U.S. government's official web portal to all federal, state and local government web resources and services.